Time;durP1;ratioP1;P1;durP2;ratioP2;P2;SDS_P1;SDS_P2;PMS_P1;PMS_P2;Temp;Humidity;BMP_temperature;BMP_pressure;BME280_temperature;BME280_humidity;BME280_pressure;Samples;Min_cycle;Max_cycle;Signal;HPM_P1;HPM_P2
2023/08/22 00:01:25;;;;;;;9.63;5.30;;;24.50;99.90;;;;;;5014380;28;20644;-61
2023/08/22 00:03:56;;;;;;;6.70;5.18;;;24.40;99.90;;;;;;5014805;28;20588;-61
2023/08/22 00:06:23;;;;;;;6.20;5.05;;;24.40;99.90;;;;;;5014286;28;20765;-62
2023/08/22 00:08:51;;;;;;;5.75;4.90;;;24.40;99.90;;;;;;5014421;28;20213;-61
2023/08/22 00:11:18;;;;;;;7.18;5.05;;;24.30;99.90;;;;;;5014318;28;20211;-60
2023/08/22 00:13:44;;;;;;;6.38;5.10;;;24.30;99.90;;;;;;5014303;28;20610;-61
2023/08/22 00:16:11;;;;;;;5.38;4.88;;;24.20;99.90;;;;;;5013743;28;20231;-61
2023/08/22 00:18:38;;;;;;;8.90;5.10;;;24.20;99.90;;;;;;5014502;28;20293;-60
2023/08/22 00:21:05;;;;;;;9.20;5.30;;;24.20;99.90;;;;;;5012858;28;20214;-60
2023/08/22 00:23:31;;;;;;;7.93;5.35;;;24.10;99.90;;;;;;5014133;28;20211;-60
2023/08/22 00:25:59;;;;;;;6.65;5.93;;;24.00;99.90;;;;;;5013417;28;20690;-61
2023/08/22 00:28:26;;;;;;;6.05;5.45;;;23.90;99.90;;;;;;5013716;28;20230;-61
2023/08/22 00:30:53;;;;;;;8.02;5.22;;;23.80;99.90;;;;;;5013577;28;20215;-61
2023/08/22 00:33:20;;;;;;;5.88;5.28;;;23.80;99.90;;;;;;5014098;28;20302;-66
2023/08/22 00:35:47;;;;;;;8.15;4.88;;;23.80;99.90;;;;;;5013426;28;20231;-59
2023/08/22 00:38:13;;;;;;;7.18;4.80;;;23.80;99.90;;;;;;5013500;28;20202;-61
2023/08/22 00:40:41;;;;;;;6.40;5.47;;;23.70;99.90;;;;;;5013529;28;20214;-61
2023/08/22 00:43:09;;;;;;;6.25;5.00;;;23.70;99.90;;;;;;5013232;28;20211;-60
2023/08/22 00:45:36;;;;;;;6.53;5.13;;;23.70;99.90;;;;;;5013303;28;20243;-60
2023/08/22 00:48:03;;;;;;;6.30;4.90;;;23.70;99.90;;;;;;5013568;28;20234;-60
2023/08/22 00:50:30;;;;;;;12.75;5.25;;;23.70;99.90;;;;;;5013426;28;20732;-60
2023/08/22 00:52:57;;;;;;;7.88;5.65;;;23.70;99.90;;;;;;5013204;28;20215;-60
2023/08/22 00:55:24;;;;;;;5.97;5.10;;;23.70;99.90;;;;;;5013670;28;20584;-61
2023/08/22 00:57:51;;;;;;;6.55;4.95;;;23.60;99.90;;;;;;5013012;28;20226;-60
2023/08/22 01:00:19;;;;;;;6.10;4.65;;;23.60;99.90;;;;;;5013216;28;20207;-60
2023/08/22 01:02:46;;;;;;;7.78;4.63;;;23.70;99.90;;;;;;5013422;28;20207;-61
2023/08/22 01:05:12;;;;;;;7.75;5.10;;;23.70;99.90;;;;;;5013681;28;20661;-61
2023/08/22 01:07:46;;;;;;;8.75;5.03;;;23.70;99.90;;;;;;5012853;28;20222;-61
2023/08/22 01:10:18;;;;;;;6.93;5.25;;;23.70;99.90;;;;;;5013093;28;20265;-61
2023/08/22 01:12:52;;;;;;;5.28;4.75;;;23.70;99.90;;;;;;5013110;28;20685;-61
2023/08/22 01:15:24;;;;;;;6.22;5.10;;;23.70;99.90;;;;;;5013091;28;20227;-60
2023/08/22 01:17:53;;;;;;;6.30;5.10;;;23.70;99.90;;;;;;5013006;28;20235;-60
2023/08/22 01:20:20;;;;;;;7.15;4.63;;;23.70;99.90;;;;;;5012756;28;20739;-60
2023/08/22 01:22:48;;;;;;;7.72;4.88;;;23.70;99.90;;;;;;5012544;28;20207;-60
2023/08/22 01:25:15;;;;;;;7.18;4.90;;;23.60;99.90;;;;;;5012736;28;20238;-60
2023/08/22 01:27:52;;;;;;;6.85;4.47;;;23.60;99.90;;;;;;5012626;28;20226;-62
2023/08/22 01:30:25;;;;;;;7.90;4.72;;;23.50;99.90;;;;;;5012754;28;20670;-60
2023/08/22 01:32:56;;;;;;;6.45;5.05;;;23.50;99.90;;;;;;5012762;28;20316;-60
2023/08/22 01:35:24;;;;;;;6.38;4.75;;;23.50;99.90;;;;;;5012480;28;20238;-60
2023/08/22 01:37:55;;;;;;;9.88;4.88;;;23.40;99.90;;;;;;5012282;28;20297;-61
2023/08/22 01:40:24;;;;;;;11.10;5.18;;;23.40;99.90;;;;;;5012435;28;20222;-60
2023/08/22 01:42:51;;;;;;;8.30;4.78;;;23.40;99.90;;;;;;5012365;28;20506;-60
2023/08/22 01:45:18;;;;;;;8.82;5.43;;;23.40;99.90;;;;;;5037936;23;20221;-61
2023/08/22 01:47:44;;;;;;;9.95;5.50;;;23.30;99.90;;;;;;5051412;28;20217;-60
2023/08/22 01:50:12;;;;;;;8.57;4.80;;;23.30;99.90;;;;;;5052063;28;20209;-60
2023/08/22 01:52:38;;;;;;;5.32;4.82;;;23.30;99.90;;;;;;5052032;28;20289;-59
2023/08/22 01:55:07;;;;;;;5.63;4.82;;;23.40;99.90;;;;;;5051632;28;20237;-59
2023/08/22 01:57:34;;;;;;;11.05;5.32;;;23.40;99.90;;;;;;5051530;28;20209;-60
2023/08/22 02:00:03;;;;;;;7.85;5.32;;;23.50;99.90;;;;;;5051739;28;20201;-59
2023/08/22 02:02:29;;;;;;;7.35;5.05;;;23.50;99.90;;;;;;5051609;28;20245;-60
2023/08/22 02:04:56;;;;;;;8.50;5.50;;;23.50;99.90;;;;;;5051637;28;20236;-59
2023/08/22 02:07:23;;;;;;;6.70;5.20;;;23.40;99.90;;;;;;5051292;28;20229;-60
2023/08/22 02:09:50;;;;;;;7.07;5.38;;;23.50;99.90;;;;;;5051469;28;20320;-59
2023/08/22 02:12:18;;;;;;;9.65;5.55;;;23.50;99.90;;;;;;5051460;28;20589;-60
2023/08/22 02:14:45;;;;;;;10.05;5.95;;;23.40;99.90;;;;;;5051702;28;20201;-60
2023/08/22 02:17:11;;;;;;;8.45;5.40;;;23.40;99.90;;;;;;5051102;28;20577;-59
2023/08/22 02:19:38;;;;;;;8.82;5.13;;;23.40;99.90;;;;;;5051512;28;20202;-60
2023/08/22 02:22:05;;;;;;;7.82;5.63;;;23.50;99.90;;;;;;5051347;28;20216;-60
2023/08/22 02:24:31;;;;;;;7.40;5.40;;;23.40;99.90;;;;;;5051563;28;20209;-59
2023/08/22 02:26:58;;;;;;;5.82;5.25;;;23.30;99.90;;;;;;5050821;28;20205;-59
2023/08/22 02:29:26;;;;;;;5.82;5.22;;;23.30;99.90;;;;;;5051060;28;20206;-61
2023/08/22 02:31:53;;;;;;;7.30;4.85;;;23.30;99.90;;;;;;5051501;28;20210;-60
2023/08/22 02:34:20;;;;;;;5.03;4.55;;;23.30;99.90;;;;;;5051522;28;20208;-60
2023/08/22 02:36:46;;;;;;;6.20;5.00;;;23.20;99.90;;;;;;5050756;28;20229;-60
2023/08/22 02:39:13;;;;;;;5.45;4.80;;;23.20;99.90;;;;;;5051120;28;20679;-61
2023/08/22 02:41:40;;;;;;;7.72;5.60;;;23.10;99.90;;;;;;5051198;28;20210;-61
2023/08/22 02:44:07;;;;;;;8.15;4.80;;;23.10;99.90;;;;;;5050628;28;20205;-61
2023/08/22 02:46:35;;;;;;;7.30;5.40;;;23.00;99.90;;;;;;5050663;28;20241;-61
2023/08/22 02:49:02;;;;;;;8.98;5.15;;;23.00;99.90;;;;;;5051056;28;20320;-60
2023/08/22 02:51:28;;;;;;;6.93;4.85;;;23.10;99.90;;;;;;5051020;28;20625;-60
2023/08/22 02:53:55;;;;;;;5.55;5.03;;;23.10;99.90;;;;;;5051052;28;20573;-60
2023/08/22 02:56:22;;;;;;;7.43;4.97;;;23.10;99.90;;;;;;5050501;28;20229;-59
2023/08/22 02:58:49;;;;;;;7.55;5.30;;;23.10;99.90;;;;;;5050742;28;20596;-62
2023/08/22 03:01:16;;;;;;;7.55;5.22;;;23.20;99.90;;;;;;5051013;28;20211;-60
2023/08/22 03:03:49;;;;;;;5.78;4.95;;;23.10;99.90;;;;;;5050682;28;20584;-59
2023/08/22 03:06:16;;;;;;;5.55;4.78;;;23.10;99.90;;;;;;5051000;28;20229;-61
2023/08/22 03:08:42;;;;;;;6.53;4.97;;;23.10;99.90;;;;;;5050910;28;20226;-60
2023/08/22 03:11:09;;;;;;;7.13;5.53;;;23.10;99.90;;;;;;5050608;28;20209;-59
2023/08/22 03:13:36;;;;;;;5.80;5.10;;;23.10;99.90;;;;;;5050929;28;20213;-61
2023/08/22 03:16:04;;;;;;;6.78;4.90;;;23.10;99.90;;;;;;5050407;28;20253;-59
2023/08/22 03:18:31;;;;;;;6.95;5.28;;;23.10;99.90;;;;;;5050775;28;20253;-60
2023/08/22 03:20:59;;;;;;;6.85;5.20;;;23.10;99.90;;;;;;5051136;28;20237;-60
2023/08/22 03:23:26;;;;;;;7.47;5.25;;;23.10;99.90;;;;;;5050936;28;20279;-62
2023/08/22 03:25:57;;;;;;;7.18;4.90;;;23.20;99.90;;;;;;5050808;28;20256;-60
2023/08/22 03:28:24;;;;;;;6.05;5.07;;;23.20;99.90;;;;;;5050721;28;20341;-60
2023/08/22 03:30:56;;;;;;;10.13;5.47;;;23.10;99.90;;;;;;5050708;28;20212;-60
2023/08/22 03:33:23;;;;;;;5.45;4.95;;;23.10;99.90;;;;;;5050621;28;20288;-60
2023/08/22 03:35:51;;;;;;;8.50;5.53;;;23.10;99.90;;;;;;5050137;28;20244;-60
2023/08/22 03:38:19;;;;;;;8.52;5.10;;;23.00;99.90;;;;;;5050484;28;20198;-61
2023/08/22 03:40:47;;;;;;;6.55;5.00;;;22.90;99.90;;;;;;5050921;28;20309;-62
2023/08/22 03:43:14;;;;;;;6.55;5.10;;;22.80;99.90;;;;;;5050627;28;20224;-61
2023/08/22 03:45:40;;;;;;;5.78;5.10;;;22.80;99.90;;;;;;5050283;28;20689;-61
2023/08/22 03:48:07;;;;;;;8.35;5.85;;;22.80;99.90;;;;;;5050270;28;20229;-61
2023/08/22 03:50:34;;;;;;;8.55;5.80;;;22.80;99.90;;;;;;5050393;28;20212;-61
2023/08/22 03:53:01;;;;;;;7.22;5.15;;;22.70;99.90;;;;;;5050904;28;20260;-61
2023/08/22 03:55:29;;;;;;;6.28;5.18;;;22.70;99.90;;;;;;5053419;28;20232;-61
2023/08/22 03:57:59;;;;;;;6.32;5.30;;;22.60;99.90;;;;;;5053955;28;20576;-59
2023/08/22 04:00:26;;;;;;;6.03;5.43;;;22.60;99.90;;;;;;5054008;28;20267;-61
2023/08/22 04:02:55;;;;;;;11.60;6.05;;;22.60;99.90;;;;;;5054116;28;20205;-60
2023/08/22 04:05:22;;;;;;;6.38;5.60;;;22.50;99.90;;;;;;5053606;28;20257;-60
2023/08/22 04:07:49;;;;;;;6.72;5.15;;;22.40;99.90;;;;;;5053738;28;20313;-61
2023/08/22 04:10:16;;;;;;;7.18;5.38;;;22.40;99.90;;;;;;5053750;28;20684;-60
2023/08/22 04:12:44;;;;;;;10.95;6.25;;;22.40;99.90;;;;;;5054115;28;20209;-61
2023/08/22 04:15:11;;;;;;;6.57;5.65;;;22.50;99.90;;;;;;5053964;28;20295;-61
2023/08/22 04:17:41;;;;;;;5.95;5.30;;;22.50;99.90;;;;;;5053349;28;20640;-61
2023/08/22 04:20:10;;;;;;;6.00;5.40;;;22.40;99.90;;;;;;5053674;28;20213;-61
2023/08/22 04:22:37;;;;;;;6.30;5.70;;;22.40;99.90;;;;;;5053777;28;20249;-61
2023/08/22 04:25:05;;;;;;;11.00;5.60;;;22.40;99.90;;;;;;5053513;28;20225;-60
2023/08/22 04:27:32;;;;;;;6.95;5.45;;;22.40;99.90;;;;;;5053331;28;20212;-60
2023/08/22 04:30:01;;;;;;;7.57;5.90;;;22.40;99.90;;;;;;5053341;28;20205;-62
2023/08/22 04:32:28;;;;;;;7.57;5.80;;;22.40;99.90;;;;;;5053050;28;20210;-60
2023/08/22 04:34:54;;;;;;;7.13;5.97;;;22.50;99.90;;;;;;5053121;28;20681;-61
2023/08/22 04:37:22;;;;;;;9.70;6.00;;;22.50;99.90;;;;;;5053326;28;20216;-60
2023/08/22 04:39:48;;;;;;;7.80;5.80;;;22.50;99.90;;;;;;5053522;28;20204;-60
2023/08/22 04:42:15;;;;;;;9.93;5.60;;;22.60;99.90;;;;;;5053282;28;20209;-62
2023/08/22 04:44:42;;;;;;;6.35;5.40;;;22.60;99.90;;;;;;5053037;28;20206;-61
2023/08/22 04:47:10;;;;;;;8.07;5.93;;;22.60;99.90;;;;;;5052872;28;20209;-60
2023/08/22 04:49:37;;;;;;;9.40;6.05;;;22.70;99.90;;;;;;5053294;28;20252;-60
2023/08/22 04:52:03;;;;;;;8.82;5.95;;;22.80;99.90;;;;;;5053079;28;20201;-60
2023/08/22 04:54:30;;;;;;;17.40;11.82;;;22.80;99.90;;;;;;5052797;28;20231;-60
2023/08/22 04:56:57;;;;;;;6.28;5.32;;;22.90;99.90;;;;;;5052595;28;20650;-60
2023/08/22 04:59:23;;;;;;;8.05;5.90;;;23.00;99.90;;;;;;5053194;28;20201;-60
2023/08/22 05:01:50;;;;;;;9.77;8.63;;;23.10;99.90;;;;;;5052941;28;20208;-59
2023/08/22 05:04:17;;;;;;;6.75;5.90;;;23.20;99.90;;;;;;5052799;28;20580;-60
2023/08/22 05:06:44;;;;;;;8.43;5.88;;;23.40;99.90;;;;;;5051926;28;20319;-60
2023/08/22 05:09:12;;;;;;;7.68;5.70;;;23.60;99.90;;;;;;5052844;28;20234;-59
2023/08/22 05:11:40;;;;;;;11.00;6.07;;;23.70;99.90;;;;;;5052820;28;20241;-60
2023/08/22 05:14:07;;;;;;;8.13;6.28;;;23.80;99.90;;;;;;5052429;28;20214;-59
2023/08/22 05:16:33;;;;;;;10.75;6.18;;;23.90;99.90;;;;;;5052116;28;20740;-60
2023/08/22 05:19:00;;;;;;;5.82;5.28;;;24.00;99.90;;;;;;5052611;28;20225;-59
2023/08/22 05:21:29;;;;;;;7.65;5.93;;;24.10;99.90;;;;;;5052555;28;20610;-59
2023/08/22 05:23:55;;;;;;;8.38;5.70;;;24.10;99.90;;;;;;5052437;28;20670;-59
2023/08/22 05:26:22;;;;;;;6.82;5.78;;;24.10;99.90;;;;;;5052172;28;20225;-61
2023/08/22 05:28:49;;;;;;;6.30;5.70;;;24.10;99.90;;;;;;5052509;28;20226;-59
2023/08/22 05:31:20;;;;;;;9.60;5.82;;;24.10;99.90;;;;;;5052414;28;20671;-60
2023/08/22 05:33:46;;;;;;;8.93;5.75;;;24.10;99.90;;;;;;5052517;28;20671;-60
2023/08/22 05:36:13;;;;;;;6.50;5.65;;;24.10;99.90;;;;;;5051930;28;20228;-59
2023/08/22 05:38:41;;;;;;;7.40;5.38;;;24.20;99.90;;;;;;5052225;28;20237;-61
2023/08/22 05:41:08;;;;;;;8.10;5.32;;;24.20;99.90;;;;;;5052516;28;20210;-60
2023/08/22 05:43:35;;;;;;;6.25;5.65;;;24.20;99.90;;;;;;5052173;28;20681;-59
2023/08/22 05:46:02;;;;;;;7.60;5.13;;;24.50;99.90;;;;;;5051710;28;20230;-60
2023/08/22 05:48:29;;;;;;;8.50;5.38;;;25.20;99.90;;;;;;5052054;28;20320;-60
2023/08/22 05:50:57;;;;;;;6.57;4.85;;;26.20;99.90;;;;;;5052171;28;20244;-60
2023/08/22 05:53:24;;;;;;;10.52;5.20;;;27.20;99.90;;;;;;5052220;28;20205;-58
2023/08/22 05:55:52;;;;;;;5.38;4.88;;;28.00;99.90;;;;;;5051598;28;20240;-60
2023/08/22 05:58:19;;;;;;;8.45;5.22;;;28.50;99.90;;;;;;5052101;28;20255;-60
2023/08/22 06:00:46;;;;;;;8.00;4.70;;;29.00;99.90;;;;;;5051966;28;20206;-59
2023/08/22 06:03:13;;;;;;;7.00;5.13;;;29.20;99.90;;;;;;5052326;28;20205;-59
2023/08/22 06:05:39;;;;;;;9.10;4.93;;;29.70;99.90;;;;;;5051605;28;20221;-59
2023/08/22 06:08:06;;;;;;;7.15;4.97;;;30.10;99.90;;;;;;5051462;28;20213;-60
2023/08/22 06:10:33;;;;;;;5.13;4.53;;;30.40;99.90;;;;;;5051743;28;20290;-59
2023/08/22 06:13:01;;;;;;;5.85;4.97;;;30.80;99.90;;;;;;5051899;28;20693;-60
2023/08/22 06:15:28;;;;;;;6.30;4.68;;;31.20;99.90;;;;;;5051603;28;20228;-59
2023/08/22 06:17:54;;;;;;;7.70;4.60;;;31.70;99.90;;;;;;5050794;28;20217;-59
2023/08/22 06:20:21;;;;;;;6.80;4.80;;;32.50;99.90;;;;;;5051647;28;20201;-59
2023/08/22 06:22:48;;;;;;;6.45;4.65;;;33.50;99.90;;;;;;5051230;28;20206;-60
2023/08/22 06:25:15;;;;;;;8.30;4.72;;;34.20;99.90;;;;;;5051743;28;20236;-63
2023/08/22 06:27:42;;;;;;;7.90;5.03;;;34.80;99.90;;;;;;5051312;28;20217;-58
2023/08/22 06:30:11;;;;;;;7.50;4.57;;;35.40;99.90;;;;;;5051292;28;20229;-56
2023/08/22 06:32:37;;;;;;;9.90;4.90;;;36.00;99.90;;;;;;5051488;28;20209;-58
2023/08/22 06:35:05;;;;;;;5.03;4.28;;;36.80;99.90;;;;;;5051358;28;20295;-56
2023/08/22 06:37:32;;;;;;;6.70;4.60;;;37.50;99.90;;;;;;5051144;28;20252;-58
2023/08/22 06:39:58;;;;;;;9.55;4.68;;;38.20;99.90;;;;;;5051531;28;20578;-58
2023/08/22 06:42:25;;;;;;;7.53;5.30;;;38.70;97.70;;;;;;5051402;28;20212;-57
2023/08/22 06:44:52;;;;;;;10.45;4.85;;;39.00;95.30;;;;;;5051013;28;20225;-57
2023/08/22 06:47:20;;;;;;;8.35;5.00;;;38.20;95.70;;;;;;5051075;28;20210;-57
2023/08/22 06:49:47;;;;;;;7.35;4.82;;;37.20;96.60;;;;;;5050882;28;20229;-57
2023/08/22 06:52:14;;;;;;;8.40;4.93;;;36.60;97.80;;;;;;5051302;28;20404;-57
2023/08/22 06:54:41;;;;;;;8.65;4.88;;;36.60;97.70;;;;;;5050928;28;20297;-57
2023/08/22 06:57:08;;;;;;;7.70;5.53;;;37.10;97.30;;;;;;5050958;28;20209;-57
2023/08/22 06:59:34;;;;;;;9.63;5.90;;;37.90;95.10;;;;;;5051028;28;20202;-57
2023/08/22 07:02:01;;;;;;;6.78;6.07;;;37.50;95.60;;;;;;5051160;28;20216;-56
2023/08/22 07:04:31;;;;;;;7.85;5.45;;;37.70;95.50;;;;;;5050915;28;20205;-56
2023/08/22 07:06:58;;;;;;;7.32;4.95;;;37.60;94.80;;;;;;5051018;28;20208;-57
2023/08/22 07:09:25;;;;;;;9.05;5.28;;;37.00;95.60;;;;;;5050859;28;20229;-58
2023/08/22 07:11:52;;;;;;;8.02;4.90;;;37.30;95.60;;;;;;5050843;28;20255;-58
2023/08/22 07:14:19;;;;;;;6.07;4.50;;;37.40;94.80;;;;;;5050540;28;20657;-58
2023/08/22 07:16:45;;;;;;;6.70;4.78;;;36.60;95.80;;;;;;5050405;28;20229;-57
2023/08/22 07:19:12;;;;;;;6.15;4.60;;;35.90;97.50;;;;;;5050788;28;20201;-58
2023/08/22 07:21:40;;;;;;;8.85;5.60;;;36.00;97.70;;;;;;5051066;28;20208;-58
2023/08/22 07:24:07;;;;;;;6.15;5.15;;;35.20;98.60;;;;;;5051386;28;20232;-57
2023/08/22 07:26:34;;;;;;;6.50;4.97;;;34.70;99.90;;;;;;5050524;28;20225;-57
2023/08/22 07:29:00;;;;;;;5.43;4.50;;;35.50;99.00;;;;;;5051361;28;20225;-57
2023/08/22 07:31:27;;;;;;;7.95;5.30;;;36.10;97.60;;;;;;5054554;28;20209;-56
2023/08/22 07:33:54;;;;;;;6.25;4.75;;;36.40;97.00;;;;;;5055148;28;20213;-57
2023/08/22 07:36:21;;;;;;;5.25;4.65;;;37.40;95.40;;;;;;5054559;28;20302;-58
2023/08/22 07:38:49;;;;;;;6.28;4.63;;;38.10;94.00;;;;;;5054545;28;20555;-57
2023/08/22 07:41:16;;;;;;;7.47;4.10;;;38.00;93.20;;;;;;5054312;28;20582;-58
2023/08/22 07:43:43;;;;;;;7.10;4.97;;;38.60;92.10;;;;;;5054232;28;20209;-57
2023/08/22 07:46:09;;;;;;;8.07;4.50;;;39.50;90.70;;;;;;5076673;22;20228;-58
2023/08/22 07:48:36;;;;;;;4.97;4.38;;;40.10;89.70;;;;;;5054924;28;20201;-59
2023/08/22 07:51:03;;;;;;;6.32;4.57;;;40.10;87.50;;;;;;5055675;28;20628;-59
2023/08/22 07:53:32;;;;;;;6.25;5.35;;;39.60;87.80;;;;;;5055270;28;20295;-59
2023/08/22 07:56:00;;;;;;;5.90;4.10;;;39.60;88.40;;;;;;5054988;28;20225;-59
2023/08/22 07:58:27;;;;;;;7.05;4.57;;;40.10;85.30;;;;;;5054198;28;20259;-59
2023/08/22 08:00:53;;;;;;;8.27;4.45;;;39.60;86.50;;;;;;5054364;28;20205;-59
2023/08/22 08:03:20;;;;;;;5.97;3.97;;;39.30;88.00;;;;;;5054772;28;20209;-59
2023/08/22 08:05:47;;;;;;;5.10;3.90;;;39.80;86.70;;;;;;5053908;28;20232;-59
2023/08/22 08:08:14;;;;;;;8.57;3.92;;;41.00;83.10;;;;;;5053926;28;20649;-60
2023/08/22 08:10:41;;;;;;;5.00;3.83;;;42.20;78.80;;;;;;5053896;28;20296;-58
2023/08/22 08:13:09;;;;;;;6.95;3.83;;;42.60;76.00;;;;;;5053486;28;20200;-60
2023/08/22 08:15:36;;;;;;;7.25;4.10;;;43.00;74.30;;;;;;5053943;28;20228;-60
2023/08/22 08:18:03;;;;;;;5.85;4.05;;;43.50;72.40;;;;;;5053369;28;20669;-59
2023/08/22 08:20:29;;;;;;;4.10;3.53;;;42.70;72.90;;;;;;5053816;28;20645;-59
2023/08/22 08:22:56;;;;;;;5.03;3.97;;;42.20;74.50;;;;;;5053556;28;20254;-59
2023/08/22 08:25:23;;;;;;;4.25;3.70;;;41.90;74.30;;;;;;5053726;28;20235;-59
2023/08/22 08:27:50;;;;;;;7.03;3.75;;;41.20;75.50;;;;;;5053355;28;20296;-60
2023/08/22 08:30:18;;;;;;;6.70;3.85;;;39.90;77.80;;;;;;5053625;28;20233;-60
2023/08/22 08:32:45;;;;;;;7.45;4.18;;;38.30;81.80;;;;;;5053792;28;20220;-59
2023/08/22 08:35:11;;;;;;;6.00;4.10;;;36.40;87.10;;;;;;5053669;28;20249;-59
2023/08/22 08:37:38;;;;;;;5.85;4.30;;;35.20;90.70;;;;;;5053244;28;20213;-59
2023/08/22 08:40:08;;;;;;;9.13;4.25;;;34.40;92.20;;;;;;5052917;28;20209;-59
2023/08/22 08:42:36;;;;;;;9.82;7.07;;;33.60;93.70;;;;;;5052689;28;20296;-58
2023/08/22 08:45:04;;;;;;;5.10;4.57;;;32.90;95.70;;;;;;5053029;28;20759;-59
2023/08/22 08:47:33;;;;;;;9.05;4.60;;;32.40;97.10;;;;;;5052818;28;20209;-58
2023/08/22 08:50:01;;;;;;;7.38;4.18;;;32.00;98.10;;;;;;5053166;28;20257;-58
2023/08/22 08:52:30;;;;;;;9.75;4.30;;;31.80;99.10;;;;;;5053436;28;20205;-58
2023/08/22 08:54:58;;;;;;;4.53;4.07;;;31.80;99.50;;;;;;5052782;28;20693;-64
2023/08/22 08:57:26;;;;;;;5.45;4.03;;;31.60;99.20;;;;;;5053059;28;20305;-58
2023/08/22 08:59:53;;;;;;;8.73;4.18;;;31.30;99.90;;;;;;5053337;28;20197;-58
2023/08/22 09:02:20;;;;;;;6.28;4.75;;;31.30;99.90;;;;;;5053353;28;20216;-58
2023/08/22 09:04:51;;;;;;;7.88;4.28;;;31.30;99.90;;;;;;5053510;28;20218;-59
2023/08/22 09:07:20;;;;;;;5.47;4.07;;;31.00;99.90;;;;;;5053097;28;20286;-59
2023/08/22 09:09:47;;;;;;;9.80;4.30;;;30.90;99.90;;;;;;5052559;28;20593;-59
2023/08/22 09:12:14;;;;;;;8.05;4.55;;;30.90;99.90;;;;;;5052910;28;20205;-59
2023/08/22 09:14:44;;;;;;;6.25;4.43;;;31.00;99.90;;;;;;5052744;28;20691;-59
2023/08/22 09:17:14;;;;;;;4.78;4.00;;;30.90;99.90;;;;;;5052468;28;20229;-59
2023/08/22 09:19:41;;;;;;;4.60;4.20;;;31.00;99.90;;;;;;5053075;28;20198;-60
2023/08/22 09:22:13;;;;;;;6.35;3.45;;;30.90;99.90;;;;;;5053154;28;20221;-57
2023/08/22 09:24:50;;;;;;;3.85;3.45;;;31.10;99.90;;;;;;5053318;28;20209;-60
2023/08/22 09:27:17;;;;;;;8.80;4.00;;;31.20;99.90;;;;;;5052488;28;20208;-58
2023/08/22 09:29:43;;;;;;;5.80;3.70;;;31.30;99.90;;;;;;5053145;28;20226;-58
2023/08/22 09:32:10;;;;;;;6.35;4.22;;;31.30;99.90;;;;;;5053348;28;20208;-58
2023/08/22 09:34:37;;;;;;;5.30;3.72;;;31.40;99.90;;;;;;5053897;28;20244;-58
2023/08/22 09:37:07;;;;;;;5.47;3.40;;;31.40;99.90;;;;;;5053161;28;20321;-59
2023/08/22 09:39:38;;;;;;;3.92;3.50;;;31.30;99.90;;;;;;5053711;28;20205;-59
2023/08/22 09:42:07;;;;;;;5.03;3.28;;;31.30;99.90;;;;;;5053313;28;20280;-59
2023/08/22 09:44:34;;;;;;;5.30;3.55;;;31.40;99.90;;;;;;5053281;28;20210;-59
2023/08/22 09:47:02;;;;;;;3.33;2.75;;;31.40;99.90;;;;;;5052689;28;20229;-59
2023/08/22 09:49:31;;;;;;;4.25;2.60;;;31.50;99.90;;;;;;5053172;28;20213;-59
2023/08/22 09:51:59;;;;;;;7.40;2.60;;;31.40;99.80;;;;;;5052534;28;20210;-59
2023/08/22 09:54:27;;;;;;;4.88;2.90;;;31.40;99.90;;;;;;5051841;28;20712;-58
2023/08/22 09:56:56;;;;;;;4.75;3.78;;;31.60;99.90;;;;;;5051347;28;20601;-58
2023/08/22 09:59:25;;;;;;;4.43;3.20;;;31.80;99.90;;;;;;5051693;28;20612;-59
2023/08/22 10:01:52;;;;;;;4.07;3.60;;;31.90;99.90;;;;;;5051771;28;20201;-64
2023/08/22 10:04:19;;;;;;;6.22;3.10;;;31.80;99.90;;;;;;5051939;28;20233;-62
2023/08/22 10:06:47;;;;;;;5.95;3.03;;;32.00;99.90;;;;;;5051573;28;20229;-61
2023/08/22 10:09:14;;;;;;;6.82;3.33;;;32.00;99.90;;;;;;5051895;28;20205;-60
2023/08/22 10:11:44;;;;;;;3.97;3.17;;;32.00;99.90;;;;;;5051574;28;20236;-62
2023/08/22 10:14:18;;;;;;;5.68;3.75;;;31.90;99.90;;;;;;5051734;28;20213;-61
2023/08/22 10:16:46;;;;;;;5.25;3.40;;;32.00;99.90;;;;;;5051191;28;20543;-62
2023/08/22 10:19:13;;;;;;;7.10;3.50;;;32.10;99.90;;;;;;5051392;28;20220;-61
2023/08/22 10:21:44;;;;;;;5.90;3.45;;;32.20;99.90;;;;;;5051318;28;20197;-61
2023/08/22 10:24:21;;;;;;;5.47;3.90;;;32.30;99.90;;;;;;5050998;28;20201;-62
2023/08/22 10:26:59;;;;;;;7.25;3.50;;;32.50;99.90;;;;;;5051087;28;20599;-60
2023/08/22 10:29:33;;;;;;;5.38;3.42;;;32.40;99.90;;;;;;5050998;28;20304;-60
2023/08/22 10:32:23;;;;;;;4.38;3.20;;;32.30;99.90;;;;;;5051191;28;20300;-61
2023/08/22 10:35:25;;;;;;;4.80;3.38;;;32.30;99.90;;;;;;5050611;28;20202;-60
2023/08/22 10:37:53;;;;;;;5.93;3.63;;;32.40;99.90;;;;;;5051112;28;20269;-60
2023/08/22 10:40:28;;;;;;;4.78;3.38;;;32.50;99.90;;;;;;5051186;28;20233;-61
2023/08/22 10:43:06;;;;;;;5.95;3.38;;;32.70;99.90;;;;;;5051154;28;20236;-60
2023/08/22 10:45:58;;;;;;;9.07;3.55;;;32.90;99.80;;;;;;5050749;28;20237;-60
2023/08/22 10:48:25;;;;;;;5.93;3.80;;;33.10;99.90;;;;;;5031518;28;20217;-60
2023/08/22 10:50:52;;;;;;;4.88;3.45;;;33.10;99.40;;;;;;5050813;28;20217;-61
2023/08/22 10:53:24;;;;;;;5.38;3.53;;;33.10;98.70;;;;;;5051053;28;20197;-60
2023/08/22 10:55:51;;;;;;;6.13;3.65;;;33.00;99.00;;;;;;5050280;28;20591;-61
2023/08/22 10:58:35;;;;;;;5.78;3.15;;;32.90;98.90;;;;;;5050896;28;20673;-62
2023/08/22 11:01:05;;;;;;;4.88;3.45;;;32.80;99.00;;;;;;5050894;28;20205;-62
2023/08/22 11:03:33;;;;;;;5.25;3.17;;;32.70;98.70;;;;;;5051165;28;20233;-62
2023/08/22 11:06:00;;;;;;;5.55;3.17;;;32.80;99.00;;;;;;5054434;28;20222;-62
2023/08/22 11:08:26;;;;;;;6.13;3.42;;;32.90;98.50;;;;;;5055023;28;20704;-62
2023/08/22 11:10:54;;;;;;;4.82;3.50;;;33.10;98.60;;;;;;5055066;28;20252;-62
2023/08/22 11:13:20;;;;;;;4.55;3.50;;;33.40;99.00;;;;;;5054804;28;20213;-62
2023/08/22 11:15:50;;;;;;;6.80;3.08;;;33.60;98.10;;;;;;5054758;28;20229;-61
2023/08/22 11:18:18;;;;;;;5.65;3.03;;;33.70;97.00;;;;;;5055221;28;20213;-61
2023/08/22 11:20:55;;;;;;;8.57;3.58;;;33.80;96.90;;;;;;5054823;28;20661;-61
2023/08/22 11:23:21;;;;;;;4.82;3.25;;;34.00;96.60;;;;;;5054606;28;20606;-61
2023/08/22 11:25:48;;;;;;;4.68;2.88;;;34.30;96.40;;;;;;5054302;28;20312;-61
2023/08/22 11:28:15;;;;;;;5.82;2.97;;;34.40;96.20;;;;;;5054819;28;20208;-62
2023/08/22 11:30:42;;;;;;;6.97;3.22;;;34.50;96.00;;;;;;5054796;28;20316;-62
2023/08/22 11:33:09;;;;;;;4.15;3.17;;;34.60;96.00;;;;;;5054410;28;20216;-61
2023/08/22 11:35:37;;;;;;;8.63;2.92;;;34.60;95.10;;;;;;5054402;28;20225;-62
2023/08/22 11:38:06;;;;;;;6.15;2.83;;;34.40;94.90;;;;;;5054197;28;20209;-61
2023/08/22 11:40:33;;;;;;;6.40;2.55;;;34.20;94.10;;;;;;5054422;28;20205;-61
2023/08/22 11:43:00;;;;;;;5.53;2.60;;;34.00;93.90;;;;;;5054329;28;20615;-62
2023/08/22 11:45:27;;;;;;;5.07;2.88;;;33.90;94.10;;;;;;5054061;28;20688;-61
2023/08/22 11:47:55;;;;;;;4.57;3.00;;;33.80;94.20;;;;;;5054307;28;20204;-62
2023/08/22 11:50:25;;;;;;;4.93;2.53;;;33.90;94.50;;;;;;5054489;28;20229;-61
2023/08/22 11:52:54;;;;;;;5.50;2.45;;;34.00;93.10;;;;;;5054247;28;20211;-61
2023/08/22 11:55:25;;;;;;;4.75;2.33;;;34.20;92.30;;;;;;5051319;28;20229;-68
2023/08/22 11:57:54;;;;;;;6.40;2.70;;;34.30;91.90;;;;;;5052891;28;20236;-61
2023/08/22 12:00:20;;;;;;;3.47;2.55;;;34.40;91.40;;;;;;5053162;28;20202;-60
2023/08/22 12:02:51;;;;;;;3.90;2.50;;;34.30;91.60;;;;;;5053072;28;20221;-59
2023/08/22 12:05:31;;;;;;;3.90;2.60;;;34.20;92.10;;;;;;5052878;28;20229;-61
2023/08/22 12:08:00;;;;;;;5.28;2.50;;;34.30;92.60;;;;;;5053079;28;20210;-60
2023/08/22 12:10:27;;;;;;;4.65;2.83;;;34.30;92.70;;;;;;5052801;28;20250;-60
2023/08/22 12:12:54;;;;;;;5.45;2.60;;;34.10;92.60;;;;;;5053447;28;20217;-60
2023/08/22 12:15:20;;;;;;;3.65;2.63;;;34.00;92.50;;;;;;5051433;28;20229;-60
2023/08/22 12:17:47;;;;;;;4.43;2.95;;;33.90;92.80;;;;;;5052376;28;20216;-59
2023/08/22 12:20:13;;;;;;;4.93;2.70;;;34.00;92.80;;;;;;5052913;28;20206;-60
2023/08/22 12:22:40;;;;;;;3.58;2.58;;;33.90;92.90;;;;;;5052986;28;20206;-61
2023/08/22 12:25:11;;;;;;;3.97;2.70;;;33.90;92.70;;;;;;5052712;28;20591;-60
2023/08/22 12:27:38;;;;;;;6.63;3.00;;;34.00;92.90;;;;;;5052300;28;20213;-60
2023/08/22 12:30:06;;;;;;;4.20;2.58;;;33.90;93.10;;;;;;5052929;28;20213;-60
2023/08/22 12:32:33;;;;;;;3.72;2.58;;;33.90;93.00;;;;;;5052871;28;20213;-59
2023/08/22 12:35:00;;;;;;;3.13;2.67;;;34.00;92.80;;;;;;5052612;28;20575;-59
2023/08/22 12:37:27;;;;;;;3.65;3.00;;;34.20;92.40;;;;;;5052190;28;20201;-60
2023/08/22 12:39:53;;;;;;;3.40;2.60;;;34.20;91.90;;;;;;5052282;28;20209;-64
2023/08/22 12:42:21;;;;;;;3.92;2.45;;;34.30;91.30;;;;;;5052386;28;20208;-65
2023/08/22 12:44:48;;;;;;;7.07;2.72;;;34.40;91.40;;;;;;5052077;28;20212;-65
2023/08/22 12:47:15;;;;;;;4.07;2.65;;;34.60;91.50;;;;;;5052091;28;20593;-65
2023/08/22 12:49:41;;;;;;;3.17;2.50;;;34.60;91.50;;;;;;5052448;28;20579;-65